EGCN/DSA METAR and TAF weather

Enter ICAO airport designator
Station Type Date Time Source
EGCN METAR 2021/03/08 12:50 UTC NOAA

EGCN 081250Z 28012KT 9999 FEW033 SCT041 09/05 Q1023


Station Type Date Time Source
EGCN Decoded METAR 2021/03/08 12:50 UTC NOAA

Station name not available
Mar 08, 2021 - 07:50 AM EST / 2021.03.08 1250 UTC
Wind: from the W (280 degrees) at 14 MPH (12 KT):0
Visibility: greater than 7 mile(s):0
Sky conditions: partly cloudy
Temperature: 48 F (9 C)
Dew Point: 41 F (5 C)
Relative Humidity: 75%
Pressure (altimeter): 30.21 in. Hg (1023 hPa)
ob: EGCN 081250Z 28012KT 9999 FEW033 SCT041 09/05 Q1023
cycle: 13

Station Type Date Time Source
EGCN TAF 2021/03/08 12:00 UTC NOAA

TAF EGCN 081059Z 0812/0912 24006KT 9999 BKN040
TEMPO 0812/0813 6000 RA BKN012
TEMPO 0813/0906 BKN012 PROB30
TEMPO 0813/0820 8000 -RA

Example: see airport list